Time;durP1;ratioP1;P1;durP2;ratioP2;P2;SDS_P1;SDS_P2;PMS_P1;PMS_P2;Temp;Humidity;BMP_temperature;BMP_pressure;BME280_temperature;BME280_humidity;BME280_pressure;Samples;Min_cycle;Max_cycle;Signal;HPM_P1;HPM_P2
2021/07/08 00:00:49;;;;;;;8.80;3.73;;;;;;;;;;4914679;28;20949;-78
2021/07/08 00:03:15;;;;;;;6.30;4.17;;;;;;;;;;4914641;29;20434;-78
2021/07/08 00:05:42;;;;;;;8.77;3.93;;;;;;;;;;4914509;28;20470;-78
2021/07/08 00:08:09;;;;;;;5.00;4.30;;;;;;;;;;4914897;28;20887;-78
2021/07/08 00:10:45;;;;;;;4.63;3.70;;;;;;;;;;4914745;29;20482;-78
2021/07/08 00:13:12;;;;;;;7.93;5.00;;;;;;;;;;4916335;29;20482;-79
2021/07/08 00:15:38;;;;;;;5.43;3.80;;;;;;;;;;4915500;28;20442;-78
2021/07/08 00:18:06;;;;;;;7.23;4.20;;;;;;;;;;4916791;29;20881;-78
2021/07/08 00:20:32;;;;;;;7.47;4.03;;;;;;;;;;4915284;28;20440;-78
2021/07/08 00:22:59;;;;;;;5.97;3.60;;;;;;;;;;4916221;29;20810;-78
2021/07/08 00:25:27;;;;;;;5.67;3.40;;;;;;;;;;4916439;29;20409;-79
2021/07/08 00:27:53;;;;;;;7.30;3.87;;;;;;;;;;4915399;28;20437;-78
2021/07/08 00:30:20;;;;;;;6.83;3.60;;;;;;;;;;4916409;29;20437;-78
2021/07/08 00:32:48;;;;;;;9.70;4.17;;;;;;;;;;4916381;29;20400;-79
2021/07/08 00:35:14;;;;;;;4.83;3.90;;;;;;;;;;4916254;29;20413;-78
2021/07/08 00:37:43;;;;;;;5.83;4.30;;;;;;;;;;4916138;29;20400;-78
2021/07/08 00:40:11;;;;;;;4.30;3.87;;;;;;;;;;4915306;29;20490;-78
2021/07/08 00:42:38;;;;;;;5.53;4.50;;;;;;;;;;4914922;28;20400;-78
2021/07/08 00:45:05;;;;;;;4.47;4.07;;;;;;;;;;4915928;29;20815;-78
2021/07/08 00:47:34;;;;;;;10.63;4.80;;;;;;;;;;4916174;29;20814;-78
2021/07/08 00:50:00;;;;;;;6.33;5.10;;;;;;;;;;4914870;28;20407;-78
2021/07/08 00:52:26;;;;;;;4.87;3.83;;;;;;;;;;4914901;29;20393;-78
2021/07/08 00:54:52;;;;;;;8.07;4.10;;;;;;;;;;4915815;29;20869;-78
2021/07/08 00:57:18;;;;;;;5.63;4.53;;;;;;;;;;4916351;29;20407;-78
2021/07/08 00:59:44;;;;;;;4.93;3.80;;;;;;;;;;4915695;29;20833;-78
2021/07/08 01:02:16;;;;;;;11.23;4.97;;;;;;;;;;4914684;29;20450;-78
2021/07/08 01:04:46;;;;;;;6.20;4.33;;;;;;;;;;4915511;29;20412;-78
2021/07/08 01:07:13;;;;;;;4.97;3.90;;;;;;;;;;4916049;29;20419;-78
2021/07/08 01:09:42;;;;;;;9.50;4.50;;;;;;;;;;4915863;29;20418;-78
2021/07/08 01:12:09;;;;;;;6.33;4.10;;;;;;;;;;4915889;29;20446;-78
2021/07/08 01:14:35;;;;;;;5.83;3.93;;;;;;;;;;4915459;29;20431;-78
2021/07/08 01:17:02;;;;;;;6.00;4.40;;;;;;;;;;4915667;29;20393;-78
2021/07/08 01:19:30;;;;;;;9.63;4.70;;;;;;;;;;4915561;29;20543;-78
2021/07/08 01:21:56;;;;;;;7.23;4.10;;;;;;;;;;4914346;29;20450;-78
2021/07/08 01:24:22;;;;;;;4.50;4.07;;;;;;;;;;4915112;29;20416;-78
2021/07/08 01:26:48;;;;;;;4.80;4.40;;;;;;;;;;4915521;29;20418;-78
2021/07/08 01:29:15;;;;;;;5.40;3.53;;;;;;;;;;4915548;29;20415;-78
2021/07/08 01:31:41;;;;;;;6.60;4.17;;;;;;;;;;4914325;28;20480;-78
2021/07/08 01:34:07;;;;;;;4.50;4.10;;;;;;;;;;4915188;29;21004;-78
2021/07/08 01:36:34;;;;;;;12.77;4.30;;;;;;;;;;4915297;29;20484;-78
2021/07/08 01:39:02;;;;;;;9.33;4.93;;;;;;;;;;4914112;29;20430;-78
2021/07/08 01:41:28;;;;;;;5.30;4.00;;;;;;;;;;4915692;29;20466;-78
2021/07/08 01:43:55;;;;;;;9.20;4.00;;;;;;;;;;4914952;29;20395;-78
2021/07/08 01:46:22;;;;;;;6.43;4.33;;;;;;;;;;4913887;28;20477;-78
2021/07/08 01:48:48;;;;;;;7.17;4.03;;;;;;;;;;4914037;29;20422;-78
2021/07/08 01:51:30;;;;;;;6.23;4.27;;;;;;;;;;4915035;29;20970;-78
2021/07/08 01:53:57;;;;;;;4.40;3.70;;;;;;;;;;4914817;29;20414;-78
2021/07/08 01:56:27;;;;;;;8.47;4.20;;;;;;;;;;4916768;28;20434;-78
2021/07/08 01:58:53;;;;;;;7.50;4.40;;;;;;;;;;4915757;29;20772;-78
2021/07/08 02:01:22;;;;;;;6.40;3.90;;;;;;;;;;4913748;28;20478;-78
2021/07/08 02:03:48;;;;;;;8.17;3.43;;;;;;;;;;4914709;29;20415;-77
2021/07/08 02:09:18;;;;;;;5.07;3.70;;;;;;;;;;4914788;29;20365;-78
2021/07/08 02:11:44;;;;;;;5.73;4.03;;;;;;;;;;4913885;29;20473;-78
2021/07/08 02:14:10;;;;;;;6.57;4.23;;;;;;;;;;4914409;29;20405;-78
2021/07/08 02:16:36;;;;;;;4.90;3.67;;;;;;;;;;4914888;29;20381;-78
2021/07/08 02:19:04;;;;;;;6.67;4.10;;;;;;;;;;4913227;28;20786;-78
2021/07/08 02:21:30;;;;;;;11.07;4.87;;;;;;;;;;4914735;29;20871;-78
2021/07/08 02:23:56;;;;;;;6.90;3.70;;;;;;;;;;4914635;29;20393;-78
2021/07/08 02:26:22;;;;;;;5.50;4.13;;;;;;;;;;4913340;29;20805;-78
2021/07/08 02:28:52;;;;;;;8.27;5.57;;;;;;;;;;4913397;29;20423;-77
2021/07/08 02:31:19;;;;;;;5.13;4.07;;;;;;;;;;4914710;29;20949;-78
2021/07/08 02:33:45;;;;;;;6.23;3.70;;;;;;;;;;4914213;29;20422;-78
2021/07/08 02:36:11;;;;;;;7.53;4.50;;;;;;;;;;4914665;29;20414;-77
2021/07/08 02:38:37;;;;;;;6.03;3.70;;;;;;;;;;4914320;29;20397;-78
2021/07/08 02:41:04;;;;;;;6.67;3.67;;;;;;;;;;4914498;29;20587;-78
2021/07/08 02:43:30;;;;;;;5.40;3.60;;;;;;;;;;4914207;29;20389;-78
2021/07/08 02:45:57;;;;;;;8.43;4.00;;;;;;;;;;4914261;29;20428;-78
2021/07/08 02:48:23;;;;;;;8.60;3.80;;;;;;;;;;4914271;29;20454;-77
2021/07/08 02:50:50;;;;;;;6.50;4.07;;;;;;;;;;4914217;29;20783;-78
2021/07/08 02:53:17;;;;;;;8.77;4.40;;;;;;;;;;4913986;29;20476;-78
2021/07/08 02:55:43;;;;;;;3.97;3.50;;;;;;;;;;4914211;29;20505;-78
2021/07/08 02:58:10;;;;;;;6.37;4.60;;;;;;;;;;4914179;29;20485;-78
2021/07/08 03:00:36;;;;;;;5.20;4.27;;;;;;;;;;4913975;29;20878;-78
2021/07/08 03:03:03;;;;;;;7.73;4.30;;;;;;;;;;4913241;29;20442;-78
2021/07/08 03:05:29;;;;;;;9.70;4.10;;;;;;;;;;4914159;29;20404;-78
2021/07/08 03:07:55;;;;;;;5.73;4.30;;;;;;;;;;4914098;29;20930;-77
2021/07/08 03:10:22;;;;;;;5.23;4.40;;;;;;;;;;4912862;28;20522;-78
2021/07/08 03:12:48;;;;;;;4.43;4.03;;;;;;;;;;4913577;29;20397;-78
2021/07/08 03:15:15;;;;;;;6.43;4.77;;;;;;;;;;4912631;28;21017;-78
2021/07/08 03:17:41;;;;;;;6.87;4.73;;;;;;;;;;4914042;29;20426;-78
2021/07/08 03:20:10;;;;;;;4.97;4.47;;;;;;;;;;4913924;29;20525;-78
2021/07/08 03:22:37;;;;;;;6.63;4.67;;;;;;;;;;4913983;29;20422;-79
2021/07/08 03:25:03;;;;;;;6.20;4.23;;;;;;;;;;4913549;29;20442;-77
2021/07/08 03:27:29;;;;;;;8.33;5.33;;;;;;;;;;4914075;29;20389;-77
2021/07/08 03:29:55;;;;;;;8.47;5.17;;;;;;;;;;4913963;29;20414;-77
2021/07/08 03:32:21;;;;;;;8.27;4.80;;;;;;;;;;4913982;29;20424;-78
2021/07/08 03:34:47;;;;;;;8.27;4.33;;;;;;;;;;4913524;29;20446;-79
2021/07/08 03:37:13;;;;;;;7.23;4.30;;;;;;;;;;4913802;29;20400;-78
2021/07/08 03:39:39;;;;;;;7.53;3.50;;;;;;;;;;4912710;29;20470;-78
2021/07/08 03:42:05;;;;;;;5.47;4.70;;;;;;;;;;4913740;29;20518;-78
2021/07/08 03:44:31;;;;;;;5.10;4.00;;;;;;;;;;4912246;28;20883;-78
2021/07/08 03:46:57;;;;;;;8.47;4.17;;;;;;;;;;4913800;29;20845;-81
2021/07/08 03:49:23;;;;;;;9.23;4.90;;;;;;;;;;4913799;29;20397;-78
2021/07/08 03:51:49;;;;;;;5.03;4.53;;;;;;;;;;4913797;29;20873;-78
2021/07/08 03:54:15;;;;;;;5.77;4.17;;;;;;;;;;4913409;29;20541;-78
2021/07/08 03:56:41;;;;;;;5.43;4.17;;;;;;;;;;4913809;29;20513;-78
2021/07/08 03:59:08;;;;;;;8.17;5.20;;;;;;;;;;4913408;29;20398;-79
2021/07/08 04:01:34;;;;;;;6.17;5.53;;;;;;;;;;4913497;29;20481;-78
2021/07/08 04:04:00;;;;;;;8.77;5.17;;;;;;;;;;4912154;29;20842;-78
2021/07/08 04:06:26;;;;;;;12.27;4.73;;;;;;;;;;4913664;29;20420;-78
2021/07/08 04:08:52;;;;;;;9.00;5.13;;;;;;;;;;4912595;29;20484;-78
2021/07/08 04:11:18;;;;;;;6.57;3.93;;;;;;;;;;4913404;29;20427;-78
2021/07/08 04:13:44;;;;;;;4.87;4.20;;;;;;;;;;4913292;29;20418;-78
2021/07/08 04:16:10;;;;;;;7.07;4.20;;;;;;;;;;4915389;29;20966;-78
2021/07/08 04:18:36;;;;;;;6.83;4.50;;;;;;;;;;4916729;29;20422;-78
2021/07/08 04:21:02;;;;;;;6.63;4.40;;;;;;;;;;4918695;29;20465;-78
2021/07/08 04:23:28;;;;;;;5.20;4.50;;;;;;;;;;4914858;29;20778;-78
2021/07/08 04:25:54;;;;;;;5.87;4.43;;;;;;;;;;4916480;29;20413;-78
2021/07/08 04:28:20;;;;;;;8.13;4.53;;;;;;;;;;4916493;29;20877;-78
2021/07/08 04:30:46;;;;;;;7.27;4.90;;;;;;;;;;4916476;29;20565;-78
2021/07/08 04:33:12;;;;;;;5.87;4.10;;;;;;;;;;4916066;29;20426;-78
2021/07/08 04:35:41;;;;;;;6.37;4.60;;;;;;;;;;4916244;29;20489;-78
2021/07/08 04:38:08;;;;;;;5.40;4.47;;;;;;;;;;4916540;29;20393;-78
2021/07/08 04:40:35;;;;;;;5.60;4.80;;;;;;;;;;4915269;28;20573;-78
2021/07/08 04:43:01;;;;;;;5.73;4.10;;;;;;;;;;4914740;28;20512;-78
2021/07/08 04:45:28;;;;;;;6.47;4.10;;;;;;;;;;4916155;29;20539;-78
2021/07/08 04:47:58;;;;;;;14.40;4.63;;;;;;;;;;4916349;29;20504;-78
2021/07/08 04:50:24;;;;;;;7.13;4.30;;;;;;;;;;4916358;29;20400;-78
2021/07/08 04:52:51;;;;;;;4.50;3.80;;;;;;;;;;4916114;29;20418;-78
2021/07/08 04:55:21;;;;;;;4.60;4.03;;;;;;;;;;4916083;29;20443;-78
2021/07/08 04:57:46;;;;;;;5.60;4.43;;;;;;;;;;4920733;28;20432;-78
2021/07/08 05:00:13;;;;;;;5.57;4.20;;;;;;;;;;4926785;29;20480;-78
2021/07/08 05:02:40;;;;;;;6.30;3.77;;;;;;;;;;4915970;29;20910;-78
2021/07/08 05:05:07;;;;;;;8.03;4.23;;;;;;;;;;4915627;29;20432;-78
2021/07/08 05:07:50;;;;;;;5.17;4.33;;;;;;;;;;4915799;29;20469;-78
2021/07/08 05:10:16;;;;;;;5.90;4.73;;;;;;;;;;4931686;29;20990;-78
2021/07/08 05:12:43;;;;;;;6.53;4.60;;;;;;;;;;4932785;29;20472;-78
2021/07/08 05:15:12;;;;;;;4.67;4.17;;;;;;;;;;4932519;29;20435;-78
2021/07/08 05:17:38;;;;;;;6.50;4.20;;;;;;;;;;4932709;29;20392;-78
2021/07/08 05:20:05;;;;;;;4.77;4.27;;;;;;;;;;4932654;29;20465;-78
2021/07/08 05:22:32;;;;;;;6.60;4.30;;;;;;;;;;4932612;29;20421;-77
2021/07/08 05:24:59;;;;;;;5.73;4.33;;;;;;;;;;4932453;29;20433;-78
2021/07/08 05:27:25;;;;;;;5.80;3.70;;;;;;;;;;4932766;28;20400;-78
2021/07/08 05:29:51;;;;;;;4.10;3.70;;;;;;;;;;4932315;29;20433;-78
2021/07/08 05:32:18;;;;;;;4.60;4.20;;;;;;;;;;4932496;29;20498;-78
2021/07/08 05:34:44;;;;;;;4.63;3.57;;;;;;;;;;4935886;28;20512;-77
2021/07/08 05:37:10;;;;;;;4.87;3.63;;;;;;;;;;4915501;29;20423;-79
2021/07/08 05:39:37;;;;;;;5.60;3.83;;;;;;;;;;4914220;29;20572;-79
2021/07/08 05:42:03;;;;;;;5.80;3.87;;;;;;;;;;4915300;29;20422;-78
2021/07/08 05:44:30;;;;;;;4.37;3.93;;;;;;;;;;4915009;29;20417;-78
2021/07/08 05:46:56;;;;;;;9.00;3.90;;;;;;;;;;4914109;29;20422;-79
2021/07/08 05:49:22;;;;;;;5.37;3.67;;;;;;;;;;4915342;29;20432;-78
2021/07/08 05:51:48;;;;;;;4.97;3.83;;;;;;;;;;4915351;29;20411;-78
2021/07/08 05:54:14;;;;;;;5.30;3.70;;;;;;;;;;4914938;29;20409;-78
2021/07/08 05:56:40;;;;;;;6.50;3.67;;;;;;;;;;4915383;29;20417;-78
2021/07/08 05:59:06;;;;;;;8.83;4.10;;;;;;;;;;4915172;29;20473;-79
2021/07/08 06:01:32;;;;;;;9.60;3.50;;;;;;;;;;4915068;29;20472;-78
2021/07/08 06:03:58;;;;;;;8.70;3.87;;;;;;;;;;4914643;29;20462;-78
2021/07/08 06:06:24;;;;;;;4.43;3.50;;;;;;;;;;4913734;29;20470;-78
2021/07/08 06:08:50;;;;;;;8.00;3.93;;;;;;;;;;4913817;29;20468;-78
2021/07/08 06:11:16;;;;;;;4.53;3.93;;;;;;;;;;4913774;29;20972;-78
2021/07/08 06:13:43;;;;;;;9.43;5.03;;;;;;;;;;4914484;29;20447;-78
2021/07/08 06:16:09;;;;;;;5.80;3.97;;;;;;;;;;4914807;29;20426;-79
2021/07/08 06:18:36;;;;;;;6.00;3.37;;;;;;;;;;4915012;29;20415;-78
2021/07/08 06:21:02;;;;;;;5.93;3.40;;;;;;;;;;4914757;29;20440;-78
2021/07/08 06:23:30;;;;;;;6.10;3.60;;;;;;;;;;4914583;29;20438;-78
2021/07/08 06:25:56;;;;;;;5.67;3.13;;;;;;;;;;4914671;29;20812;-78
2021/07/08 06:31:26;;;;;;;4.67;2.40;;;;;;;;;;4914982;29;20369;-79
2021/07/08 06:33:52;;;;;;;7.17;4.03;;;;;;;;;;4914809;29;20418;-78
2021/07/08 06:36:18;;;;;;;8.93;3.30;;;;;;;;;;4916321;29;20422;-78
2021/07/08 06:38:44;;;;;;;7.30;3.23;;;;;;;;;;4913663;29;20422;-78
2021/07/08 06:41:10;;;;;;;5.00;3.17;;;;;;;;;;4914476;29;20498;-78
2021/07/08 06:43:35;;;;;;;8.90;3.53;;;;;;;;;;4913059;29;20396;-78
2021/07/08 06:46:02;;;;;;;9.50;3.40;;;;;;;;;;4914281;29;20432;-78
2021/07/08 06:48:28;;;;;;;6.53;3.83;;;;;;;;;;4913288;29;20439;-79
2021/07/08 06:50:54;;;;;;;4.00;3.20;;;;;;;;;;4914637;29;20404;-78
2021/07/08 06:53:20;;;;;;;6.33;2.90;;;;;;;;;;4914105;29;20456;-78
2021/07/08 06:55:47;;;;;;;4.83;3.20;;;;;;;;;;4914329;29;20442;-78
2021/07/08 06:58:13;;;;;;;3.77;2.70;;;;;;;;;;4913059;29;20826;-79
2021/07/08 07:00:41;;;;;;;5.40;3.47;;;;;;;;;;4914085;29;20466;-78
2021/07/08 07:03:08;;;;;;;3.77;2.90;;;;;;;;;;4897705;29;20873;-78
2021/07/08 07:05:34;;;;;;;3.63;2.70;;;;;;;;;;4914164;29;20531;-78
2021/07/08 07:08:00;;;;;;;4.17;2.80;;;;;;;;;;4914424;29;20424;-79
2021/07/08 07:10:27;;;;;;;6.33;2.70;;;;;;;;;;4914142;29;20471;-79
2021/07/08 07:12:54;;;;;;;2.93;2.53;;;;;;;;;;4913887;29;20430;-78
2021/07/08 07:15:21;;;;;;;9.63;3.47;;;;;;;;;;4913983;29;20441;-79
2021/07/08 07:17:48;;;;;;;4.37;2.77;;;;;;;;;;4914202;29;20752;-79
2021/07/08 07:20:15;;;;;;;4.40;3.03;;;;;;;;;;4913979;29;20954;-78
2021/07/08 07:22:45;;;;;;;5.47;2.70;;;;;;;;;;4913929;29;20410;-80
2021/07/08 07:25:11;;;;;;;5.90;3.27;;;;;;;;;;4913873;29;20430;-79
2021/07/08 07:27:37;;;;;;;9.90;3.70;;;;;;;;;;4912800;29;20790;-78
2021/07/08 07:30:05;;;;;;;3.07;2.53;;;;;;;;;;4914282;29;20456;-79
2021/07/08 07:32:31;;;;;;;5.63;3.60;;;;;;;;;;4914163;29;20429;-78
2021/07/08 07:34:57;;;;;;;7.53;3.27;;;;;;;;;;4913530;29;20450;-78
2021/07/08 07:37:24;;;;;;;7.47;3.50;;;;;;;;;;4914170;29;20389;-78
2021/07/08 07:39:50;;;;;;;5.83;3.30;;;;;;;;;;4913908;29;20448;-79
2021/07/08 07:42:16;;;;;;;4.83;3.53;;;;;;;;;;4913960;29;20419;-78
2021/07/08 07:44:47;;;;;;;9.43;3.77;;;;;;;;;;4913454;29;20989;-78
2021/07/08 07:47:13;;;;;;;4.53;3.03;;;;;;;;;;4897625;29;20465;-79
2021/07/08 07:49:39;;;;;;;7.63;3.50;;;;;;;;;;4915318;29;20470;-79
2021/07/08 07:52:05;;;;;;;5.10;4.10;;;;;;;;;;4917283;29;20497;-78
2021/07/08 07:54:35;;;;;;;6.60;3.60;;;;;;;;;;4915461;29;21022;-79
2021/07/08 07:57:04;;;;;;;6.17;3.83;;;;;;;;;;4916912;29;20424;-79
2021/07/08 07:59:30;;;;;;;7.53;3.73;;;;;;;;;;4916958;29;20421;-79
2021/07/08 08:01:56;;;;;;;9.40;3.97;;;;;;;;;;4916868;29;20500;-79
2021/07/08 08:04:25;;;;;;;6.00;3.80;;;;;;;;;;4916697;29;20828;-80
2021/07/08 08:09:36;;;;;;;7.30;3.30;;;;;;;;;;4917346;29;20737;-79
2021/07/08 08:12:11;;;;;;;6.37;3.70;;;;;;;;;;4916778;29;20413;-79
2021/07/08 08:14:37;;;;;;;6.80;3.63;;;;;;;;;;4904496;29;20491;-79
2021/07/08 08:17:03;;;;;;;4.97;3.30;;;;;;;;;;4915336;29;20422;-80
2021/07/08 08:19:29;;;;;;;7.23;3.20;;;;;;;;;;4916588;29;20417;-79
2021/07/08 08:21:55;;;;;;;4.27;3.27;;;;;;;;;;4917087;29;20499;-80
2021/07/08 08:24:21;;;;;;;4.87;3.23;;;;;;;;;;4918969;29;20465;-79
2021/07/08 08:26:51;;;;;;;7.57;3.63;;;;;;;;;;4916617;29;20416;-79
2021/07/08 08:29:17;;;;;;;6.23;2.90;;;;;;;;;;4916565;29;20492;-78
2021/07/08 08:31:43;;;;;;;7.13;2.40;;;;;;;;;;4916584;29;20418;-79
2021/07/08 08:34:09;;;;;;;5.90;3.00;;;;;;;;;;4916163;29;20447;-79
2021/07/08 08:36:37;;;;;;;3.30;2.43;;;;;;;;;;4916416;29;20410;-81
2021/07/08 08:39:03;;;;;;;10.83;3.13;;;;;;;;;;4916316;29;20442;-79
2021/07/08 08:41:29;;;;;;;9.73;3.10;;;;;;;;;;4915047;29;20986;-78
2021/07/08 08:43:55;;;;;;;4.03;2.57;;;;;;;;;;4916111;29;20414;-77
2021/07/08 08:46:21;;;;;;;3.60;2.40;;;;;;;;;;4916513;29;20418;-79
2021/07/08 08:48:47;;;;;;;7.57;3.10;;;;;;;;;;4915263;29;20384;-79
2021/07/08 08:51:13;;;;;;;3.73;3.00;;;;;;;;;;4916266;29;20415;-80
2021/07/08 08:53:39;;;;;;;3.27;2.80;;;;;;;;;;4914512;29;20473;-79
2021/07/08 08:56:06;;;;;;;10.70;3.00;;;;;;;;;;4916190;29;20430;-79
2021/07/08 08:58:32;;;;;;;4.60;3.20;;;;;;;;;;4916244;29;20426;-79
2021/07/08 09:01:02;;;;;;;5.50;3.77;;;;;;;;;;4915161;29;20482;-79
2021/07/08 09:03:30;;;;;;;7.47;3.63;;;;;;;;;;4915668;29;20789;-79
2021/07/08 09:05:58;;;;;;;4.70;3.20;;;;;;;;;;4915929;29;20438;-79
2021/07/08 09:08:24;;;;;;;6.37;2.97;;;;;;;;;;4916060;29;20465;-80
2021/07/08 09:11:03;;;;;;;5.60;2.90;;;;;;;;;;4916113;29;20426;-80
2021/07/08 09:13:45;;;;;;;4.80;3.33;;;;;;;;;;4914278;29;20418;-80
2021/07/08 09:16:17;;;;;;;8.73;3.20;;;;;;;;;;4915988;29;20414;-79
2021/07/08 09:18:44;;;;;;;7.17;3.07;;;;;;;;;;4914691;29;20939;-79
2021/07/08 09:21:20;;;;;;;4.13;2.10;;;;;;;;;;4915706;29;20461;-79
2021/07/08 09:24:21;;;;;;;4.83;2.50;;;;;;;;;;4913928;29;20422;-79
2021/07/08 09:27:02;;;;;;;4.20;2.50;;;;;;;;;;5012866;28;20444;-79
2021/07/08 09:29:29;;;;;;;5.20;2.80;;;;;;;;;;4925775;28;20930;-79
2021/07/08 09:31:57;;;;;;;4.23;2.57;;;;;;;;;;4914527;29;20923;-79
2021/07/08 09:34:24;;;;;;;9.47;2.67;;;;;;;;;;4914087;29;20939;-80
2021/07/08 09:37:01;;;;;;;4.43;2.93;;;;;;;;;;4915642;29;20754;-79
2021/07/08 09:39:32;;;;;;;7.03;3.53;;;;;;;;;;4915854;29;20415;-79
2021/07/08 09:41:58;;;;;;;8.90;3.33;;;;;;;;;;4915462;29;20433;-79
2021/07/08 09:44:27;;;;;;;5.90;2.50;;;;;;;;;;4914971;29;20454;-79
2021/07/08 09:46:54;;;;;;;3.70;3.10;;;;;;;;;;4915403;29;20415;-79
2021/07/08 09:49:20;;;;;;;4.03;3.10;;;;;;;;;;4915355;29;20421;-79
2021/07/08 09:51:46;;;;;;;6.30;3.00;;;;;;;;;;4913975;29;20429;-79
2021/07/08 09:54:21;;;;;;;5.07;2.73;;;;;;;;;;4914967;29;20788;-79
2021/07/08 09:56:54;;;;;;;4.40;2.97;;;;;;;;;;4915233;29;20421;-79
2021/07/08 09:59:21;;;;;;;4.93;2.90;;;;;;;;;;4915337;29;20438;-79
2021/07/08 10:01:56;;;;;;;4.70;2.93;;;;;;;;;;4915137;29;20466;-80
2021/07/08 10:04:22;;;;;;;3.43;3.10;;;;;;;;;;4913630;29;20958;-79
2021/07/08 10:06:48;;;;;;;4.60;2.47;;;;;;;;;;4915405;29;20836;-79
2021/07/08 10:09:19;;;;;;;4.50;2.40;;;;;;;;;;4913890;29;20779;-79
2021/07/08 10:11:46;;;;;;;5.93;2.80;;;;;;;;;;4913684;29;20837;-80
2021/07/08 10:14:12;;;;;;;3.80;3.00;;;;;;;;;;4913215;29;20493;-79
2021/07/08 10:16:38;;;;;;;10.90;3.57;;;;;;;;;;4914992;29;20410;-79
2021/07/08 10:19:05;;;;;;;7.97;2.23;;;;;;;;;;4913621;29;20418;-79
2021/07/08 10:21:32;;;;;;;6.93;2.93;;;;;;;;;;4914759;29;20441;-80
2021/07/08 10:23:59;;;;;;;6.90;3.00;;;;;;;;;;4914363;29;20434;-81
2021/07/08 10:26:25;;;;;;;10.33;3.40;;;;;;;;;;4914669;29;20800;-79
2021/07/08 10:28:51;;;;;;;7.07;2.60;;;;;;;;;;4913796;29;20442;-80
2021/07/08 10:31:21;;;;;;;6.47;3.47;;;;;;;;;;4914723;29;20502;-79
2021/07/08 10:34:06;;;;;;;4.83;2.70;;;;;;;;;;4913362;29;20501;-79
2021/07/08 10:36:32;;;;;;;5.30;2.57;;;;;;;;;;4914602;29;20427;-79
2021/07/08 10:39:03;;;;;;;6.83;3.00;;;;;;;;;;4913544;29;20418;-79
2021/07/08 10:41:35;;;;;;;7.07;2.73;;;;;;;;;;4914515;29;20461;-80
2021/07/08 10:44:02;;;;;;;4.03;2.70;;;;;;;;;;4914102;29;20562;-79
2021/07/08 10:46:36;;;;;;;6.90;2.80;;;;;;;;;;4914542;29;21117;-80
2021/07/08 10:49:12;;;;;;;9.47;3.00;;;;;;;;;;4914496;29;20407;-80
2021/07/08 10:51:40;;;;;;;3.97;2.87;;;;;;;;;;4914562;29;20768;-78
2021/07/08 10:54:25;;;;;;;4.03;1.77;;;;;;;;;;4914296;29;20533;-78
2021/07/08 10:56:52;;;;;;;6.30;1.97;;;;;;;;;;4914675;29;20438;-78
2021/07/08 10:59:18;;;;;;;8.80;3.10;;;;;;;;;;4914546;29;20429;-78
2021/07/08 11:01:50;;;;;;;5.20;2.70;;;;;;;;;;4914308;29;20472;-78
2021/07/08 11:04:16;;;;;;;4.93;3.27;;;;;;;;;;4914026;29;20804;-78
2021/07/08 11:06:45;;;;;;;7.80;3.20;;;;;;;;;;4914293;29;20531;-78
2021/07/08 11:09:17;;;;;;;5.40;3.37;;;;;;;;;;4913063;29;20429;-78
2021/07/08 11:11:46;;;;;;;9.57;3.13;;;;;;;;;;4914218;29;20473;-79
2021/07/08 11:14:23;;;;;;;6.30;3.47;;;;;;;;;;4913726;29;20438;-79
2021/07/08 11:16:49;;;;;;;8.40;2.47;;;;;;;;;;4914006;29;20429;-79
2021/07/08 11:19:16;;;;;;;4.23;2.50;;;;;;;;;;4914183;29;20422;-79
2021/07/08 11:21:58;;;;;;;7.53;2.63;;;;;;;;;;4914003;29;20458;-79
2021/07/08 11:24:29;;;;;;;5.00;2.43;;;;;;;;;;4914899;29;20776;-79
2021/07/08 11:26:58;;;;;;;6.50;2.63;;;;;;;;;;4917635;29;20430;-79
2021/07/08 11:29:42;;;;;;;4.30;2.60;;;;;;;;;;4917832;29;20403;-79
2021/07/08 11:32:20;;;;;;;6.57;2.53;;;;;;;;;;4917632;29;20437;-79
2021/07/08 11:34:58;;;;;;;4.10;2.50;;;;;;;;;;4920653;29;20437;-78
2021/07/08 11:37:42;;;;;;;4.17;2.70;;;;;;;;;;4918886;29;20485;-79
2021/07/08 11:40:12;;;;;;;3.20;2.43;;;;;;;;;;4916369;29;20457;-80
2021/07/08 11:42:39;;;;;;;6.47;2.40;;;;;;;;;;4917241;29;20410;-80
2021/07/08 11:45:10;;;;;;;4.80;2.37;;;;;;;;;;4916900;29;21293;-81
2021/07/08 11:47:47;;;;;;;3.40;2.30;;;;;;;;;;4917436;29;20505;-79
2021/07/08 11:50:17;;;;;;;4.23;2.03;;;;;;;;;;4917272;29;20449;-79
2021/07/08 11:52:43;;;;;;;8.60;2.87;;;;;;;;;;4917200;29;20446;-79
2021/07/08 11:55:09;;;;;;;8.47;2.60;;;;;;;;;;4915742;29;20814;-78
2021/07/08 11:57:52;;;;;;;7.23;2.60;;;;;;;;;;4916962;29;20520;-79
2021/07/08 12:00:27;;;;;;;5.13;2.60;;;;;;;;;;4915440;29;20569;-78
2021/07/08 12:02:53;;;;;;;2.80;2.60;;;;;;;;;;4916496;29;20480;-78
2021/07/08 12:05:21;;;;;;;4.20;2.80;;;;;;;;;;4916760;29;20439;-80
2021/07/08 12:07:50;;;;;;;5.37;2.13;;;;;;;;;;4916857;29;20414;-80
2021/07/08 12:10:25;;;;;;;5.87;3.20;;;;;;;;;;4916755;29;20410;-78
2021/07/08 12:12:56;;;;;;;6.00;2.57;;;;;;;;;;4916403;29;20442;-79
2021/07/08 12:15:23;;;;;;;4.07;2.90;;;;;;;;;;4915366;29;20500;-79
2021/07/08 12:17:59;;;;;;;4.97;3.30;;;;;;;;;;4916639;29;20431;-80
2021/07/08 12:20:26;;;;;;;5.70;3.33;;;;;;;;;;4916682;29;20493;-79
2021/07/08 12:22:59;;;;;;;7.47;3.10;;;;;;;;;;4916243;29;20986;-79
2021/07/08 12:25:26;;;;;;;5.77;3.17;;;;;;;;;;4915253;29;20438;-80
2021/07/08 12:27:53;;;;;;;7.70;3.37;;;;;;;;;;4915170;29;20419;-80
2021/07/08 12:30:20;;;;;;;6.10;3.20;;;;;;;;;;4916469;29;20519;-78
2021/07/08 12:32:47;;;;;;;8.80;3.07;;;;;;;;;;4916273;29;20452;-78
2021/07/08 12:35:13;;;;;;;8.83;3.60;;;;;;;;;;4915770;29;20431;-77
2021/07/08 12:37:40;;;;;;;6.07;3.23;;;;;;;;;;4916150;29;20410;-79
2021/07/08 12:40:07;;;;;;;8.33;2.80;;;;;;;;;;4915268;29;20489;-79
2021/07/08 12:42:34;;;;;;;4.87;3.20;;;;;;;;;;4916400;29;20414;-80
2021/07/08 12:45:05;;;;;;;4.50;2.83;;;;;;;;;;4914631;29;20462;-79
2021/07/08 12:47:31;;;;;;;6.40;3.43;;;;;;;;;;4916303;29;20423;-79
2021/07/08 12:49:59;;;;;;;8.77;3.80;;;;;;;;;;4916181;29;20469;-80
2021/07/08 12:52:25;;;;;;;7.63;3.83;;;;;;;;;;4916312;29;20739;-78
2021/07/08 12:54:51;;;;;;;4.83;3.13;;;;;;;;;;4914689;29;20443;-77
2021/07/08 12:57:21;;;;;;;7.13;3.67;;;;;;;;;;4916312;29;20441;-78
2021/07/08 12:59:56;;;;;;;3.70;3.30;;;;;;;;;;4915847;29;20529;-78
2021/07/08 13:02:23;;;;;;;6.67;3.33;;;;;;;;;;4916165;29;20493;-79
2021/07/08 13:04:59;;;;;;;7.73;3.10;;;;;;;;;;4915725;29;20776;-79
2021/07/08 13:07:25;;;;;;;4.63;3.33;;;;;;;;;;4913871;29;20414;-79
2021/07/08 13:10:02;;;;;;;6.03;3.20;;;;;;;;;;4913720;29;20469;-80
2021/07/08 13:12:28;;;;;;;4.97;3.33;;;;;;;;;;4914757;29;20781;-80
2021/07/08 13:14:55;;;;;;;8.77;3.70;;;;;;;;;;4911813;29;20451;-80
2021/07/08 13:17:27;;;;;;;6.17;3.77;;;;;;;;;;4914395;29;20438;-80
2021/07/08 13:20:01;;;;;;;7.47;3.70;;;;;;;;;;4913913;29;20458;-80
2021/07/08 13:22:27;;;;;;;5.47;4.13;;;;;;;;;;4912442;29;20430;-81
2021/07/08 13:24:53;;;;;;;4.77;4.00;;;;;;;;;;4913853;29;20526;-81
2021/07/08 13:27:33;;;;;;;7.43;3.53;;;;;;;;;;4913163;29;20520;-81
2021/07/08 13:30:17;;;;;;;7.10;3.47;;;;;;;;;;4913334;29;20422;-80
2021/07/08 13:32:43;;;;;;;7.10;4.40;;;;;;;;;;4913776;29;20518;-80
2021/07/08 13:35:09;;;;;;;7.20;3.90;;;;;;;;;;4914339;29;20495;-80
2021/07/08 13:37:40;;;;;;;8.10;4.00;;;;;;;;;;4912996;29;20441;-82
2021/07/08 13:40:09;;;;;;;8.77;4.57;;;;;;;;;;4914205;29;20535;-80
2021/07/08 13:42:35;;;;;;;6.43;5.20;;;;;;;;;;4912487;29;20935;-81
2021/07/08 13:45:01;;;;;;;5.53;3.50;;;;;;;;;;4913196;29;20474;-81
2021/07/08 13:47:27;;;;;;;5.13;3.33;;;;;;;;;;4913327;29;20446;-82
2021/07/08 13:49:56;;;;;;;4.80;3.60;;;;;;;;;;4914209;29;20443;-81
2021/07/08 13:52:24;;;;;;;6.53;3.87;;;;;;;;;;4911827;29;20953;-81
2021/07/08 13:54:50;;;;;;;7.93;3.80;;;;;;;;;;4913779;29;20519;-81
2021/07/08 13:57:20;;;;;;;6.80;3.60;;;;;;;;;;4913532;29;20437;-81
2021/07/08 13:59:53;;;;;;;5.40;3.40;;;;;;;;;;4912093;29;20923;-81
2021/07/08 14:02:19;;;;;;;8.13;4.07;;;;;;;;;;4913192;29;20461;-81
2021/07/08 14:04:45;;;;;;;9.50;3.80;;;;;;;;;;4913599;29;20454;-81
2021/07/08 14:07:11;;;;;;;8.10;4.17;;;;;;;;;;4912581;29;20426;-81
2021/07/08 14:09:37;;;;;;;5.63;4.33;;;;;;;;;;4912732;29;20565;-81
2021/07/08 14:12:03;;;;;;;7.40;5.30;;;;;;;;;;4910594;29;20451;-80
2021/07/08 14:14:32;;;;;;;6.90;4.07;;;;;;;;;;4911594;29;20446;-80
2021/07/08 14:16:58;;;;;;;8.90;5.00;;;;;;;;;;4913272;29;20858;-80
2021/07/08 14:19:24;;;;;;;5.90;4.77;;;;;;;;;;4913644;29;20418;-80
2021/07/08 14:21:50;;;;;;;6.03;4.20;;;;;;;;;;4912412;29;20520;-80
2021/07/08 14:24:16;;;;;;;6.90;3.80;;;;;;;;;;4912445;29;20446;-80
2021/07/08 14:26:42;;;;;;;8.93;4.43;;;;;;;;;;4913393;29;20426;-79
2021/07/08 14:29:08;;;;;;;6.70;4.30;;;;;;;;;;4912471;29;20422;-80
2021/07/08 14:31:34;;;;;;;5.07;4.37;;;;;;;;;;4912118;29;20442;-80
2021/07/08 14:34:00;;;;;;;11.70;5.27;;;;;;;;;;4911551;29;20478;-79
2021/07/08 14:36:26;;;;;;;9.03;4.00;;;;;;;;;;4911706;29;20437;-79
2021/07/08 14:38:52;;;;;;;5.57;4.40;;;;;;;;;;4911920;29;20796;-80
2021/07/08 14:41:18;;;;;;;8.30;5.77;;;;;;;;;;4913192;29;20492;-80
2021/07/08 14:43:51;;;;;;;7.87;6.23;;;;;;;;;;4910729;29;20426;-80
2021/07/08 14:46:18;;;;;;;11.63;5.60;;;;;;;;;;4912008;29;20432;-80
2021/07/08 14:48:52;;;;;;;8.10;5.87;;;;;;;;;;4913057;29;20795;-79
2021/07/08 14:51:19;;;;;;;11.53;6.67;;;;;;;;;;4913213;29;20430;-79
2021/07/08 14:53:45;;;;;;;11.27;6.80;;;;;;;;;;4916100;29;20472;-79
2021/07/08 14:56:12;;;;;;;8.37;6.50;;;;;;;;;;4911880;29;20461;-80